createdAt,value
2023-05-14T00:01:21.929Z,100454.06
2023-05-14T00:03:48.998Z,100454.96
2023-05-14T00:06:16.237Z,100455.98
2023-05-14T00:08:43.095Z,100455.95
2023-05-14T00:11:10.151Z,100451.46
2023-05-14T00:13:37.096Z,100453.77
2023-05-14T00:16:04.261Z,100454.57
2023-05-14T00:18:31.223Z,100455.23
2023-05-14T00:20:58.141Z,100455.44
2023-05-14T00:23:24.962Z,100451.13
2023-05-14T00:25:51.850Z,100449.71
2023-05-14T00:28:18.688Z,100450.55
2023-05-14T00:30:45.577Z,100451.95
2023-05-14T00:33:12.695Z,100453.29
2023-05-14T00:35:39.563Z,100453.46
2023-05-14T00:38:06.493Z,100451.67
2023-05-14T00:40:33.333Z,100451.55
2023-05-14T00:43:00.542Z,100451.88
2023-05-14T00:45:27.536Z,100444.92
2023-05-14T00:47:54.443Z,100448.67
2023-05-14T00:50:22.519Z,100441.34
2023-05-14T00:52:49.661Z,100444.12
2023-05-14T00:55:16.750Z,100444.35
2023-05-14T00:57:44.147Z,100445.23
2023-05-14T01:00:11.637Z,100443.17
2023-05-14T01:02:38.790Z,100448.59
2023-05-14T01:05:06.142Z,100449.33
2023-05-14T01:07:45.783Z,100451.73
2023-05-14T01:10:17.028Z,100453.14
2023-05-14T01:12:57.263Z,100453.34
2023-05-14T01:15:25.444Z,100452.13
2023-05-14T01:17:58.176Z,100454.26
2023-05-14T01:20:29.204Z,100454.58
2023-05-14T01:22:57.481Z,100455.78
2023-05-14T01:25:24.377Z,100453.70
2023-05-14T01:27:54.508Z,100450.23
2023-05-14T01:30:46.658Z,100456.42
2023-05-14T01:33:14.440Z,100451.23
2023-05-14T01:35:41.777Z,100454.69
2023-05-14T01:38:11.011Z,100452.92
2023-05-14T01:40:38.218Z,100454.46
2023-05-14T01:43:05.294Z,100457.96
2023-05-14T01:45:35.117Z,100453.00
2023-05-14T01:48:02.030Z,100453.34
2023-05-14T01:50:29.421Z,100454.73
2023-05-14T01:52:56.832Z,100457.65
2023-05-14T01:55:24.746Z,100454.61
2023-05-14T01:57:52.689Z,100454.42
2023-05-14T02:00:20.525Z,100451.22
2023-05-14T02:02:47.431Z,100453.97
2023-05-14T02:05:14.322Z,100455.76
2023-05-14T02:07:41.201Z,100460.42
2023-05-14T02:10:09.752Z,100462.27
2023-05-14T02:12:36.660Z,100458.75
2023-05-14T02:15:09.079Z,100460.89
2023-05-14T02:17:36.574Z,100459.56
2023-05-14T02:20:04.494Z,100461.44
2023-05-14T02:22:31.437Z,100457.89
2023-05-14T02:24:58.707Z,100455.60
2023-05-14T02:27:25.597Z,100454.97
2023-05-14T02:29:53.005Z,100455.46
2023-05-14T02:32:19.936Z,100458.86
2023-05-14T02:34:46.907Z,100457.92
2023-05-14T02:37:13.947Z,100458.88
2023-05-14T02:39:40.742Z,100458.95
2023-05-14T02:42:07.589Z,100457.86
2023-05-14T02:44:34.610Z,100453.03
2023-05-14T02:47:01.606Z,100451.20
2023-05-14T02:49:28.610Z,100455.17
2023-05-14T02:51:55.662Z,100453.59
2023-05-14T02:54:22.521Z,100456.67
2023-05-14T02:56:49.344Z,100456.13
2023-05-14T02:59:16.218Z,100454.33
2023-05-14T03:01:43.801Z,100453.09
2023-05-14T03:04:11.354Z,100453.13
2023-05-14T03:06:38.245Z,100456.45
2023-05-14T03:09:05.112Z,100451.46
2023-05-14T03:11:32.089Z,100456.16
2023-05-14T03:13:59.002Z,100454.71
2023-05-14T03:16:25.929Z,100456.14
2023-05-14T03:18:52.912Z,100459.16
2023-05-14T03:21:20.094Z,100459.60
2023-05-14T03:23:47.050Z,100465.61
2023-05-14T03:26:14.002Z,100464.73
2023-05-14T03:28:41.051Z,100463.40
2023-05-14T03:31:07.936Z,100461.63
2023-05-14T03:33:34.867Z,100465.24
2023-05-14T03:36:01.900Z,100470.01
2023-05-14T03:38:28.850Z,100472.63
2023-05-14T03:40:56.108Z,100473.78
2023-05-14T03:43:23.055Z,100474.14
2023-05-14T03:45:52.624Z,100476.77
2023-05-14T03:48:20.293Z,100477.83
2023-05-14T03:50:47.693Z,100480.07
2023-05-14T03:53:14.647Z,100482.09
2023-05-14T03:55:41.604Z,100479.87
2023-05-14T03:58:14.413Z,100483.15
2023-05-14T04:00:42.371Z,100484.70
2023-05-14T04:03:11.230Z,100484.15
2023-05-14T04:05:38.309Z,100485.57
2023-05-14T04:08:06.074Z,100479.58
2023-05-14T04:10:32.991Z,100481.16
2023-05-14T04:13:00.588Z,100477.96
2023-05-14T04:15:31.842Z,100475.20
2023-05-14T04:17:58.917Z,100477.35
2023-05-14T04:20:25.948Z,100474.94
2023-05-14T04:22:54.119Z,100477.71
2023-05-14T04:25:21.040Z,100474.66
2023-05-14T04:27:47.877Z,100476.70
2023-05-14T04:30:14.969Z,100478.90
2023-05-14T04:32:41.931Z,100479.19
2023-05-14T04:35:10.518Z,100476.42
2023-05-14T04:37:37.460Z,100477.44
2023-05-14T04:40:05.848Z,100473.59
2023-05-14T04:42:32.720Z,100474.73
2023-05-14T04:44:59.546Z,100477.66
2023-05-14T04:47:26.769Z,100478.19
2023-05-14T04:49:53.649Z,100481.06
2023-05-14T04:52:20.485Z,100481.89
2023-05-14T04:54:47.390Z,100480.91
2023-05-14T04:57:14.309Z,100479.13
2023-05-14T04:59:41.166Z,100474.39
2023-05-14T05:02:08.094Z,100476.33
2023-05-14T05:04:34.917Z,100480.99
2023-05-14T05:07:01.798Z,100485.52
2023-05-14T05:09:28.739Z,100485.44
2023-05-14T05:11:55.586Z,100484.20
2023-05-14T05:14:22.433Z,100483.27
2023-05-14T05:16:49.288Z,100478.88
2023-05-14T05:19:16.192Z,100479.80
2023-05-14T05:21:43.192Z,100479.19
2023-05-14T05:24:10.141Z,100476.40
2023-05-14T05:26:37.084Z,100476.67
2023-05-14T05:29:04.689Z,100480.48
2023-05-14T05:31:31.964Z,100479.61
2023-05-14T05:33:59.593Z,100481.26
2023-05-14T05:36:26.473Z,100478.48
2023-05-14T05:38:53.377Z,100482.77
2023-05-14T05:41:20.731Z,100480.17
2023-05-14T05:43:47.585Z,100479.05
2023-05-14T05:46:14.441Z,100483.47
2023-05-14T05:48:41.292Z,100482.56
2023-05-14T05:51:08.226Z,100481.89
2023-05-14T05:53:35.074Z,100483.99
2023-05-14T05:56:01.891Z,100476.68
2023-05-14T05:58:28.798Z,100476.63
2023-05-14T06:00:57.776Z,100473.34
2023-05-14T06:03:24.759Z,100473.88
2023-05-14T06:05:52.810Z,100474.17
2023-05-14T06:08:19.785Z,100472.86
2023-05-14T06:10:47.607Z,100473.09
2023-05-14T06:13:14.790Z,100471.55
2023-05-14T06:15:41.668Z,100464.34
2023-05-14T06:18:08.649Z,100463.95
2023-05-14T06:20:35.627Z,100462.71
2023-05-14T06:23:02.520Z,100464.89
2023-05-14T06:25:29.430Z,100463.23
2023-05-14T06:27:56.284Z,100467.34
2023-05-14T06:30:23.469Z,100464.71
2023-05-14T06:32:50.750Z,100465.34
2023-05-14T06:35:19.169Z,100471.41
2023-05-14T06:37:46.034Z,100474.61
2023-05-14T06:40:15.765Z,100475.05
2023-05-14T06:42:42.628Z,100473.56
2023-05-14T06:45:10.148Z,100473.43
2023-05-14T06:47:37.072Z,100474.02
2023-05-14T06:50:04.360Z,100471.33
2023-05-14T06:52:31.305Z,100471.52
2023-05-14T06:54:58.153Z,100468.77
2023-05-14T06:57:25.110Z,100467.23
2023-05-14T06:59:52.265Z,100467.36
2023-05-14T07:02:19.317Z,100466.73
2023-05-14T07:04:46.687Z,100465.89
2023-05-14T07:07:15.560Z,100462.70
2023-05-14T07:09:42.867Z,100462.73
2023-05-14T07:12:09.730Z,100463.45
2023-05-14T07:14:36.623Z,100463.87
2023-05-14T07:17:03.708Z,100460.02
2023-05-14T07:19:30.627Z,100460.64
2023-05-14T07:21:58.135Z,100460.50
2023-05-14T07:24:24.988Z,100461.81
2023-05-14T07:26:52.098Z,100457.23
2023-05-14T07:29:19.046Z,100458.64
2023-05-14T07:31:46.039Z,100457.02
2023-05-14T07:34:13.169Z,100455.42
2023-05-14T07:36:40.095Z,100452.38
2023-05-14T07:39:07.066Z,100451.20
2023-05-14T07:41:34.013Z,100454.88
2023-05-14T07:44:01.180Z,100451.46
2023-05-14T07:46:28.106Z,100453.64
2023-05-14T07:48:55.158Z,100449.87
2023-05-14T07:51:22.009Z,100447.64
2023-05-14T07:53:48.928Z,100443.00
2023-05-14T07:56:16.140Z,100443.46
2023-05-14T07:58:43.183Z,100436.64
2023-05-14T08:01:10.320Z,100441.42
2023-05-14T08:03:37.223Z,100447.31
2023-05-14T08:06:04.628Z,100442.73
2023-05-14T08:08:31.429Z,100441.16
2023-05-14T08:10:58.323Z,100437.69
2023-05-14T08:13:25.485Z,100438.61
2023-05-14T08:15:52.791Z,100439.21
2023-05-14T08:18:19.710Z,100436.92
2023-05-14T08:20:47.261Z,100434.19
2023-05-14T08:23:14.214Z,100431.21
2023-05-14T08:25:41.056Z,100431.80
2023-05-14T08:28:08.280Z,100429.16
2023-05-14T08:30:35.246Z,100434.52
2023-05-14T08:33:02.351Z,100431.45
2023-05-14T08:35:29.288Z,100424.84
2023-05-14T08:37:57.351Z,100422.11
2023-05-14T08:40:24.603Z,100421.02
2023-05-14T08:42:51.721Z,100419.42
2023-05-14T08:45:22.092Z,100418.19
2023-05-14T08:47:53.000Z,100412.33
2023-05-14T08:50:22.591Z,100412.55
2023-05-14T08:52:50.337Z,100407.43
2023-05-14T08:55:17.201Z,100405.35
2023-05-14T08:57:44.042Z,100406.23
2023-05-14T09:00:12.123Z,100402.89
2023-05-14T09:02:42.520Z,100397.75
2023-05-14T09:05:10.097Z,100396.86
2023-05-14T09:07:36.960Z,100393.94
2023-05-14T09:10:04.701Z,100393.80
2023-05-14T09:12:31.603Z,100397.41
2023-05-14T09:14:58.504Z,100395.02
2023-05-14T09:17:26.594Z,100391.62
2023-05-14T09:19:53.728Z,100385.34
2023-05-14T09:22:20.672Z,100385.27
2023-05-14T09:24:47.622Z,100383.67
2023-05-14T09:27:21.721Z,100378.71
2023-05-14T09:29:48.682Z,100375.25
2023-05-14T09:32:15.648Z,100374.83
2023-05-14T09:34:42.503Z,100370.94
2023-05-14T09:37:10.246Z,100368.38
2023-05-14T09:39:37.714Z,100370.10
2023-05-14T09:42:05.177Z,100364.40
2023-05-14T09:44:32.230Z,100362.27
2023-05-14T09:46:59.348Z,100358.31
2023-05-14T09:49:26.391Z,100357.71
2023-05-14T09:51:53.422Z,100353.79
2023-05-14T09:54:20.749Z,100350.52
2023-05-14T09:56:47.712Z,100350.18
2023-05-14T09:59:15.067Z,100354.27
2023-05-14T10:01:42.870Z,100353.92
2023-05-14T10:04:10.103Z,100350.94
2023-05-14T10:06:37.963Z,100344.38
2023-05-14T10:09:05.979Z,100340.46
2023-05-14T10:11:37.998Z,100347.92
2023-05-14T10:14:08.749Z,100343.73
2023-05-14T10:16:38.318Z,100336.77
2023-05-14T10:19:10.516Z,100336.55
2023-05-14T10:21:38.916Z,100333.48
2023-05-14T10:24:06.941Z,100329.55
2023-05-14T10:26:37.925Z,100327.74
2023-05-14T10:29:10.029Z,100329.68
2023-05-14T10:31:47.232Z,100323.33
2023-05-14T10:34:41.352Z,100326.48
2023-05-14T10:37:15.594Z,100318.71
2023-05-14T10:39:42.558Z,100318.21
2023-05-14T10:42:12.526Z,100314.94
2023-05-14T10:44:43.264Z,100312.47
2023-05-14T10:47:10.218Z,100307.30
2023-05-14T10:49:43.282Z,100310.30
2023-05-14T10:52:11.872Z,100305.59
2023-05-14T10:54:39.148Z,100304.20
2023-05-14T10:57:11.264Z,100306.24
2023-05-14T10:59:42.001Z,100310.07
2023-05-14T11:02:32.715Z,100309.05
2023-05-14T11:05:03.856Z,100307.13
2023-05-14T11:07:35.449Z,100309.51
2023-05-14T11:10:21.798Z,100305.94
2023-05-14T11:12:49.530Z,100301.47
2023-05-14T11:15:26.316Z,100299.42
2023-05-14T11:17:53.660Z,100298.23
2023-05-14T11:20:20.824Z,100294.25
2023-05-14T11:22:48.477Z,100295.62
2023-05-14T11:25:15.578Z,100290.46
2023-05-14T11:27:46.112Z,100290.29
2023-05-14T11:30:15.313Z,100294.56
2023-05-14T11:32:42.481Z,100294.13
2023-05-14T11:35:09.979Z,100302.61
2023-05-14T11:37:36.945Z,100316.86
2023-05-14T11:40:09.960Z,100320.97
2023-05-14T11:42:37.299Z,100324.21
2023-05-14T11:45:05.376Z,100327.10
2023-05-14T11:47:32.398Z,100336.83
2023-05-14T11:50:00.149Z,100341.08
2023-05-14T11:52:27.126Z,100340.93
2023-05-14T11:54:54.086Z,100337.13
2023-05-14T11:57:21.748Z,100332.73
2023-05-14T11:59:49.742Z,100332.20
2023-05-14T12:02:18.076Z,100335.82
2023-05-14T12:04:45.617Z,100340.45
2023-05-14T12:07:14.250Z,100364.66
2023-05-14T12:09:49.886Z,100365.63
2023-05-14T12:12:23.093Z,100356.93
2023-05-14T12:14:50.149Z,100355.23
2023-05-14T12:17:20.907Z,100347.19
2023-05-14T12:19:49.175Z,100348.77
2023-05-14T12:22:17.756Z,100348.13
2023-05-14T12:24:52.464Z,100347.06
2023-05-14T12:27:24.676Z,100350.55
2023-05-14T12:30:19.248Z,100355.27
2023-05-14T12:32:51.882Z,100355.36
2023-05-14T12:35:19.370Z,100345.42
2023-05-14T12:37:46.284Z,100335.07
2023-05-14T12:40:13.424Z,100331.56
2023-05-14T12:42:40.409Z,100326.98
2023-05-14T12:45:08.832Z,100328.23
2023-05-14T12:47:37.206Z,100325.55
2023-05-14T12:50:04.993Z,100328.29
2023-05-14T12:55:01.853Z,100319.73
2023-05-14T12:57:30.045Z,100313.67
2023-05-14T12:59:57.172Z,100308.11
2023-05-14T13:02:24.135Z,100307.07
2023-05-14T13:04:50.956Z,100303.85
2023-05-14T13:07:17.917Z,100303.14
2023-05-14T13:09:44.800Z,100307.38
2023-05-14T13:12:11.672Z,100311.80
2023-05-14T13:14:38.567Z,100315.52
2023-05-14T13:17:06.093Z,100318.30
2023-05-14T13:19:33.139Z,100323.06
2023-05-14T13:22:00.054Z,100327.00
2023-05-14T13:24:27.087Z,100328.34
2023-05-14T13:26:53.934Z,100326.70
2023-05-14T13:29:21.146Z,100330.65
2023-05-14T13:31:48.140Z,100333.17
2023-05-14T13:34:15.089Z,100331.57
2023-05-14T13:36:43.642Z,100333.77
2023-05-14T13:39:13.645Z,100332.31
2023-05-14T13:41:41.574Z,100334.20
2023-05-14T13:44:08.528Z,100330.73
2023-05-14T13:46:35.423Z,100330.86
2023-05-14T13:49:02.395Z,100332.70
2023-05-14T13:51:29.232Z,100331.10
2023-05-14T13:53:56.405Z,100330.94
2023-05-14T13:56:23.731Z,100321.70
2023-05-14T13:58:50.740Z,100321.18
2023-05-14T14:01:17.709Z,100320.89
2023-05-14T14:03:44.514Z,100320.33
2023-05-14T14:06:12.101Z,100318.14
2023-05-14T14:08:38.986Z,100315.02
2023-05-14T14:11:05.874Z,100311.61
2023-05-14T14:13:32.699Z,100307.42
2023-05-14T14:15:59.630Z,100305.77
2023-05-14T14:18:26.947Z,100305.52
2023-05-14T14:20:54.004Z,100304.18
2023-05-14T14:23:21.478Z,100308.11
2023-05-14T14:25:48.365Z,100310.23
2023-05-14T14:28:15.248Z,100307.98
2023-05-14T14:30:43.879Z,100309.39
2023-05-14T14:33:11.471Z,100306.70
2023-05-14T14:35:38.689Z,100306.09
2023-05-14T14:38:05.937Z,100303.05
2023-05-14T14:40:34.000Z,100307.38
2023-05-14T14:43:02.250Z,100306.84
2023-05-14T14:45:29.248Z,100297.98
2023-05-14T14:48:28.752Z,100296.16
2023-05-14T14:50:55.918Z,100295.77
2023-05-14T14:53:23.024Z,100295.27
2023-05-14T14:55:50.116Z,100292.83
2023-05-14T14:58:18.493Z,100292.76
2023-05-14T15:00:45.816Z,100294.35
2023-05-14T15:03:13.037Z,100296.85
2023-05-14T15:05:40.053Z,100293.69
2023-05-14T15:08:06.921Z,100294.35
2023-05-14T15:10:38.135Z,100291.30
2023-05-14T15:13:06.228Z,100288.44
2023-05-14T15:15:33.773Z,100280.44
2023-05-14T15:18:00.965Z,100279.93
2023-05-14T15:20:27.925Z,100279.14
2023-05-14T15:22:55.168Z,100280.67
2023-05-14T15:25:22.871Z,100280.42
2023-05-14T15:27:50.338Z,100284.52
2023-05-14T15:30:17.196Z,100277.10
2023-05-14T15:32:44.941Z,100280.13
2023-05-14T15:35:11.871Z,100282.06
2023-05-14T15:37:40.141Z,100281.04
2023-05-14T15:40:10.606Z,100280.62
2023-05-14T15:42:42.218Z,100278.58
2023-05-14T15:45:10.617Z,100276.89
2023-05-14T15:47:37.774Z,100274.44
2023-05-14T15:50:05.479Z,100276.23
2023-05-14T15:52:32.389Z,100276.41
2023-05-14T15:54:59.848Z,100277.58
2023-05-14T15:57:27.633Z,100281.48
2023-05-14T15:59:54.767Z,100280.90
2023-05-14T16:02:21.615Z,100284.16
2023-05-14T16:04:49.796Z,100282.56
2023-05-14T16:07:16.659Z,100283.25
2023-05-14T16:09:43.692Z,100281.86
2023-05-14T16:12:10.845Z,100281.31
2023-05-14T16:14:38.576Z,100285.77
2023-05-14T16:17:06.389Z,100281.91
2023-05-14T16:19:33.239Z,100283.75
2023-05-14T16:22:00.178Z,100282.19
2023-05-14T16:24:27.138Z,100281.48
2023-05-14T16:26:54.324Z,100281.45
2023-05-14T16:29:21.243Z,100281.95
2023-05-14T16:31:48.224Z,100281.40
2023-05-14T16:34:15.272Z,100286.21
2023-05-14T16:36:42.194Z,100288.10
2023-05-14T16:39:09.139Z,100288.84
2023-05-14T16:41:36.210Z,100289.77
2023-05-14T16:44:03.658Z,100288.60
2023-05-14T16:46:31.396Z,100292.67
2023-05-14T16:48:58.368Z,100293.48
2023-05-14T16:51:25.335Z,100297.95
2023-05-14T16:53:52.250Z,100299.21
2023-05-14T16:56:19.279Z,100297.36
2023-05-14T16:58:46.101Z,100300.90
2023-05-14T17:01:13.087Z,100299.62
2023-05-14T17:03:40.072Z,100300.91
2023-05-14T17:06:07.342Z,100304.23
2023-05-14T17:08:35.715Z,100307.33
2023-05-14T17:11:05.891Z,100309.77
2023-05-14T17:13:33.463Z,100310.00
2023-05-14T17:16:00.951Z,100311.56
2023-05-14T17:18:28.446Z,100313.27
2023-05-14T17:20:55.415Z,100312.75
2023-05-14T17:23:22.267Z,100317.80
2023-05-14T17:25:49.172Z,100315.36
2023-05-14T17:28:16.049Z,100314.23
2023-05-14T17:30:42.891Z,100316.39
2023-05-14T17:33:09.913Z,100315.24
2023-05-14T17:35:37.406Z,100318.12
2023-05-14T17:38:04.337Z,100317.30
2023-05-14T17:40:31.214Z,100316.34
2023-05-14T17:42:58.096Z,100319.19
2023-05-14T17:45:25.381Z,100315.81
2023-05-14T17:47:52.575Z,100319.17
2023-05-14T17:50:19.711Z,100313.56
2023-05-14T17:52:47.695Z,100319.59
2023-05-14T17:55:14.730Z,100321.60
2023-05-14T17:57:42.227Z,100325.63
2023-05-14T18:00:09.853Z,100320.27
2023-05-14T18:02:39.631Z,100323.30
2023-05-14T18:05:07.256Z,100322.91
2023-05-14T18:07:34.824Z,100320.63
2023-05-14T18:10:01.702Z,100319.26
2023-05-14T18:12:29.439Z,100322.15
2023-05-14T18:14:56.286Z,100321.65
2023-05-14T18:17:23.134Z,100322.98
2023-05-14T18:19:49.999Z,100316.14
2023-05-14T18:22:16.879Z,100315.59
2023-05-14T18:24:44.548Z,100314.52
2023-05-14T18:27:11.572Z,100312.98
2023-05-14T18:29:38.510Z,100317.77
2023-05-14T18:32:06.379Z,100314.69
2023-05-14T18:34:33.262Z,100317.52
2023-05-14T18:37:00.196Z,100317.74
2023-05-14T18:39:27.026Z,100319.84
2023-05-14T18:41:55.114Z,100321.77
2023-05-14T18:44:22.876Z,100321.23
2023-05-14T18:46:49.863Z,100320.52
2023-05-14T18:49:16.781Z,100326.48
2023-05-14T18:51:43.700Z,100326.45
2023-05-14T18:54:10.526Z,100324.33
2023-05-14T18:56:37.418Z,100329.84
2023-05-14T18:59:04.547Z,100323.60
2023-05-14T19:01:31.678Z,100324.17
2023-05-14T19:03:58.785Z,100323.54
2023-05-14T19:06:25.838Z,100319.02
2023-05-14T19:08:52.796Z,100314.72
2023-05-14T19:11:19.732Z,100317.11
2023-05-14T19:13:48.017Z,100320.38
2023-05-14T19:16:15.117Z,100325.42
2023-05-14T19:18:42.041Z,100327.67
2023-05-14T19:21:08.974Z,100329.36
2023-05-14T19:23:35.790Z,100330.55
2023-05-14T19:26:02.775Z,100333.98
2023-05-14T19:28:29.637Z,100333.39
2023-05-14T19:30:57.367Z,100335.09
2023-05-14T19:33:24.540Z,100337.61
2023-05-14T19:35:52.202Z,100339.20
2023-05-14T19:38:19.876Z,100334.52
2023-05-14T19:40:46.768Z,100330.48
2023-05-14T19:43:13.671Z,100333.05
2023-05-14T19:45:42.814Z,100332.84
2023-05-14T19:48:09.884Z,100331.13
2023-05-14T19:50:39.746Z,100328.60
2023-05-14T19:53:06.935Z,100323.35
2023-05-14T19:55:33.948Z,100323.05
2023-05-14T19:58:01.023Z,100323.96
2023-05-14T20:00:28.122Z,100321.70
2023-05-14T20:02:55.584Z,100325.38
2023-05-14T20:05:22.616Z,100324.27
2023-05-14T20:07:50.062Z,100326.31
2023-05-14T20:10:16.951Z,100328.05
2023-05-14T20:12:43.829Z,100326.92
2023-05-14T20:15:11.114Z,100322.98
2023-05-14T20:17:41.562Z,100323.96
2023-05-14T20:20:10.216Z,100320.85
2023-05-14T20:22:38.509Z,100323.10
2023-05-14T20:25:07.095Z,100322.53
2023-05-14T20:27:34.048Z,100326.30
2023-05-14T20:30:01.182Z,100322.44
2023-05-14T20:32:28.174Z,100323.10
2023-05-14T20:34:55.122Z,100320.20
2023-05-14T20:37:22.243Z,100324.10
2023-05-14T20:39:49.143Z,100322.15
2023-05-14T20:42:16.145Z,100321.60
2023-05-14T20:44:43.033Z,100320.56
2023-05-14T20:47:09.873Z,100319.08
2023-05-14T20:49:36.670Z,100318.29
2023-05-14T20:52:04.559Z,100319.24
2023-05-14T20:54:31.404Z,100321.29
2023-05-14T20:56:58.262Z,100320.61
2023-05-14T20:59:25.105Z,100319.31
2023-05-14T21:01:52.100Z,100322.02
2023-05-14T21:04:19.250Z,100320.45
2023-05-14T21:06:46.474Z,100319.59
2023-05-14T21:09:13.342Z,100319.05
2023-05-14T21:11:40.261Z,100318.54
2023-05-14T21:14:07.119Z,100311.73
2023-05-14T21:16:34.117Z,100312.48
2023-05-14T21:19:01.107Z,100311.02
2023-05-14T21:21:28.088Z,100308.06
2023-05-14T21:23:55.017Z,100306.92
2023-05-14T21:26:22.484Z,100308.42
2023-05-14T21:28:49.534Z,100308.98
2023-05-14T21:31:16.525Z,100308.21
2023-05-14T21:33:43.539Z,100308.05
2023-05-14T21:36:10.409Z,100309.04
2023-05-14T21:38:37.264Z,100312.21
2023-05-14T21:41:04.494Z,100310.55
2023-05-14T21:43:31.346Z,100311.91
2023-05-14T21:45:58.187Z,100306.77
2023-05-14T21:48:25.222Z,100304.59
2023-05-14T21:50:52.176Z,100299.98
2023-05-14T21:53:19.045Z,100300.65
2023-05-14T21:55:45.875Z,100300.54
2023-05-14T21:58:12.681Z,100296.69
2023-05-14T22:00:39.586Z,100291.85
2023-05-14T22:03:06.535Z,100287.33
2023-05-14T22:05:33.593Z,100284.12
2023-05-14T22:08:00.415Z,100277.94
2023-05-14T22:10:27.386Z,100277.88
2023-05-14T22:12:54.198Z,100276.33
2023-05-14T22:15:21.092Z,100279.36
2023-05-14T22:17:48.300Z,100277.45
2023-05-14T22:20:15.393Z,100278.32
2023-05-14T22:22:42.241Z,100277.05
2023-05-14T22:25:09.708Z,100272.42
2023-05-14T22:27:36.533Z,100267.08
2023-05-14T22:30:03.836Z,100264.14
2023-05-14T22:32:30.787Z,100258.93
2023-05-14T22:34:57.629Z,100258.90
2023-05-14T22:37:24.554Z,100256.43
2023-05-14T22:39:51.398Z,100258.88
2023-05-14T22:42:20.464Z,100257.81
2023-05-14T22:44:47.582Z,100261.09
2023-05-14T22:47:14.437Z,100260.02
2023-05-14T22:49:41.674Z,100259.50
2023-05-14T22:52:08.730Z,100259.35
2023-05-14T22:54:36.521Z,100257.84
2023-05-14T22:57:03.952Z,100257.71
2023-05-14T22:59:30.941Z,100260.27
2023-05-14T23:01:57.840Z,100262.10
2023-05-14T23:04:24.957Z,100264.61
2023-05-14T23:06:51.802Z,100266.84
2023-05-14T23:09:19.129Z,100264.31
2023-05-14T23:11:46.293Z,100268.09
2023-05-14T23:14:13.136Z,100264.71
2023-05-14T23:16:39.966Z,100262.88
2023-05-14T23:19:07.001Z,100264.65
2023-05-14T23:21:34.103Z,100261.27
2023-05-14T23:24:01.147Z,100260.38
2023-05-14T23:26:28.042Z,100261.83
2023-05-14T23:28:54.875Z,100259.79
2023-05-14T23:31:21.707Z,100256.00
2023-05-14T23:33:48.823Z,100251.02
2023-05-14T23:36:15.773Z,100252.77
2023-05-14T23:38:42.924Z,100251.30
2023-05-14T23:41:09.763Z,100252.38
2023-05-14T23:43:36.868Z,100251.68
2023-05-14T23:46:04.131Z,100250.87
2023-05-14T23:48:31.342Z,100248.59
2023-05-14T23:50:58.163Z,100248.22
2023-05-14T23:53:25.041Z,100244.24
2023-05-14T23:55:51.902Z,100246.98
2023-05-14T23:58:18.727Z,100249.40
